KMTC/MTC METAR and TAF weather

Enter ICAO airport designator
Station Type Date Time Source
KMTC METAR 2020/07/11 03:42 UTC NOAA

KMTC 110342Z AUTO 30007KT 10SM -RA SCT070 BKN110 23/23 A2970 RMK AO2 RAB42 TSE11 SLP057 $


Station Type Date Time Source
KMTC Decoded METAR 2020/07/11 03:42 UTC NOAA

Selfridge Air National Guard Base, MI, United States (KMTC) 42-37N 082-50W
Jul 10, 2020 - 11:42 PM EDT / 2020.07.11 0342 UTC
Wind: from the WNW (300 degrees) at 8 MPH (7 KT):0
Visibility: 10 mile(s):0
Sky conditions: mostly cloudy
Weather: light rain
Temperature: 73 F (23 C)
Dew Point: 73 F (23 C)
Relative Humidity: 100%
Pressure (altimeter): 29.7 in. Hg (1005 hPa)
ob: KMTC 110342Z AUTO 30007KT 10SM -RA SCT070 BKN110 23/23 A2970 RMK AO2 RAB42 TSE11 SLP057
cycle: 3

Station Type Date Time Source
KMTC TAF 2020/07/11 01:09 UTC NOAA

TAF KMTC 110100Z 1101/1207 30006KT 9000 -SHRA BKN020 QNH2966INS
TEMPO 1101/1107 29020G25KT 8000 -TSRA OVC010CB
BECMG 1108/1109 31009KT 9000 BR OVC015 QNH2969INS
BECMG 1112/1113 30015G20KT 9999 NSW SCT020 BKN025 QNH2975INS
BECMG 1115/1116 31020G25KT 9999 FEW030 QNH2977INS
BECMG 1200/1201 32009KT 9999 SCT040 BKN050 QNH2979INS TX27/1121Z TN19/1111Z LAST NO
AMDS AFT 1103 NEXT 1109

Example: see airport list